Time;durP1;ratioP1;P1;durP2;ratioP2;P2;SDS_P1;SDS_P2;PMS_P1;PMS_P2;Temp;Humidity;BMP_temperature;BMP_pressure;BME280_temperature;BME280_humidity;BME280_pressure;Samples;Min_cycle;Max_cycle;Signal;HPM_P1;HPM_P2
2023/06/07 00:01:45;;;;;;;6.00;3.70;;;;;;;16.61;68.69;101938.00;5003825;28;20489;-56
2023/06/07 00:04:13;;;;;;;4.40;3.45;;;;;;;16.58;68.13;101937.97;5004324;28;20068;-56
2023/06/07 00:06:41;;;;;;;4.57;3.40;;;;;;;16.51;68.29;101937.88;5002926;28;20064;-56
2023/06/07 00:09:09;;;;;;;4.57;3.27;;;;;;;16.48;68.45;101937.81;5004674;28;20304;-56
2023/06/07 00:11:36;;;;;;;4.75;3.42;;;;;;;16.36;68.84;101948.13;5003677;28;20030;-56
2023/06/07 00:14:02;;;;;;;5.65;3.40;;;;;;;16.35;69.28;101951.59;5001693;28;20033;-57
2023/06/07 00:16:27;;;;;;;4.25;3.20;;;;;;;16.30;69.24;101941.00;5002863;28;20049;-56
2023/06/07 00:18:52;;;;;;;4.82;3.30;;;;;;;16.31;69.32;101949.81;4978827;28;20053;-57
2023/06/07 00:21:20;;;;;;;5.38;3.50;;;;;;;16.29;68.79;101952.41;5003624;28;20046;-57
2023/06/07 00:23:46;;;;;;;5.07;3.53;;;;;;;16.29;69.72;101955.03;5003081;28;21107;-56
2023/06/07 00:26:11;;;;;;;5.45;3.67;;;;;;;16.31;69.38;101953.31;5002791;28;20042;-57
2023/06/07 00:28:37;;;;;;;4.45;3.33;;;;;;;16.28;69.82;101949.72;5003393;28;20069;-56
2023/06/07 00:31:02;;;;;;;6.15;3.45;;;;;;;16.24;69.36;101948.78;5001944;28;20057;-57
2023/06/07 00:33:27;;;;;;;4.85;3.17;;;;;;;16.14;68.06;101953.00;5003284;28;20523;-56
2023/06/07 00:35:52;;;;;;;4.95;3.55;;;;;;;16.16;69.64;101947.75;5000255;28;20065;-57
2023/06/07 00:38:18;;;;;;;5.00;3.78;;;;;;;16.10;70.23;101951.16;5001602;28;20034;-56
2023/06/07 00:40:43;;;;;;;6.15;3.40;;;;;;;16.16;69.51;101945.13;5002688;28;20160;-56
2023/06/07 00:43:08;;;;;;;6.32;3.70;;;;;;;16.17;69.42;101947.78;5001547;28;20045;-56
2023/06/07 00:45:33;;;;;;;4.35;3.40;;;;;;;16.11;69.21;101947.69;5001526;28;20038;-56
2023/06/07 00:48:00;;;;;;;6.40;3.50;;;;;;;16.11;69.33;101947.69;5003267;28;20029;-57
2023/06/07 00:50:26;;;;;;;4.90;3.70;;;;;;;16.11;68.87;101941.56;5003595;28;20040;-57
2023/06/07 00:52:52;;;;;;;4.72;3.50;;;;;;;16.10;69.50;101945.03;5003227;28;20041;-57
2023/06/07 00:55:17;;;;;;;5.28;3.33;;;;;;;16.10;69.59;101948.53;5002680;28;20038;-56
2023/06/07 00:57:43;;;;;;;5.20;3.55;;;;;;;16.09;69.37;101946.78;5003250;28;20450;-57
2023/06/07 01:00:13;;;;;;;5.18;3.38;;;;;;;16.03;69.29;101948.41;5003397;28;20505;-56
2023/06/07 01:02:39;;;;;;;4.85;3.40;;;;;;;16.00;70.30;101938.72;5003678;28;20120;-57
2023/06/07 01:05:05;;;;;;;4.75;3.63;;;;;;;15.96;69.94;101939.50;5002457;28;20131;-57
2023/06/07 01:07:32;;;;;;;5.85;3.22;;;;;;;15.93;69.00;101934.19;5002639;28;20521;-57
2023/06/07 01:09:58;;;;;;;5.93;3.35;;;;;;;15.89;70.60;101942.88;4980211;28;20022;-56
2023/06/07 01:12:24;;;;;;;4.13;3.30;;;;;;;15.85;70.74;101943.69;5002973;28;20185;-56
2023/06/07 01:14:50;;;;;;;4.43;3.45;;;;;;;15.89;70.64;101945.50;5002617;28;20070;-57
2023/06/07 01:17:18;;;;;;;4.72;3.58;;;;;;;15.85;70.58;101943.69;5001926;28;20041;-56
2023/06/07 01:19:53;;;;;;;5.35;3.60;;;;;;;15.74;67.67;101939.09;5003058;28;20034;-57
2023/06/07 01:22:20;;;;;;;5.25;3.65;;;;;;;15.72;70.53;101937.28;5000642;28;20103;-56
2023/06/07 01:24:47;;;;;;;5.10;3.63;;;;;;;15.68;71.40;101936.31;5001259;28;20397;-56
2023/06/07 01:27:14;;;;;;;5.18;3.83;;;;;;;15.62;71.14;101930.94;5000593;28;20087;-56
2023/06/07 01:29:39;;;;;;;5.53;3.50;;;;;;;15.64;70.79;101931.84;4990004;28;20413;-56
2023/06/07 01:32:07;;;;;;;5.63;3.90;;;;;;;15.60;71.28;101937.91;5001996;28;20034;-57
2023/06/07 01:34:34;;;;;;;5.00;3.33;;;;;;;15.57;70.73;101927.31;5001825;28;20037;-56
2023/06/07 01:37:01;;;;;;;5.25;3.67;;;;;;;15.47;69.55;101936.78;5001927;28;20037;-56
2023/06/07 01:39:28;;;;;;;5.20;3.42;;;;;;;15.40;71.49;101927.88;5002095;28;20061;-57
2023/06/07 01:41:53;;;;;;;5.95;3.72;;;;;;;15.42;71.77;101926.16;5000081;28;20568;-56
2023/06/07 01:44:19;;;;;;;5.50;3.70;;;;;;;15.42;71.21;101920.88;5002034;28;20125;-56
2023/06/07 01:46:46;;;;;;;4.72;3.47;;;;;;;15.44;71.87;101920.94;5002104;28;20480;-56
2023/06/07 01:49:12;;;;;;;5.13;3.55;;;;;;;15.44;71.65;101915.69;5002452;28;20045;-56
2023/06/07 01:51:37;;;;;;;5.00;3.70;;;;;;;15.44;71.41;101919.19;5003209;28;20507;-56
2023/06/07 01:54:03;;;;;;;4.95;3.35;;;;;;;15.41;70.99;101923.50;5001164;28;20396;-56
2023/06/07 01:56:54;;;;;;;5.15;3.63;;;;;;;15.36;70.78;101922.53;5003827;28;20042;-56
2023/06/07 01:59:45;;;;;;;5.60;3.47;;;;;;;15.29;69.28;101917.16;5006916;28;20042;-56
2023/06/07 02:02:24;;;;;;;5.65;3.60;;;;;;;15.25;70.96;101917.94;5005512;28;20042;-56
2023/06/07 02:04:56;;;;;;;5.20;3.93;;;;;;;15.26;71.54;101910.94;5006398;28;20042;-57
2023/06/07 02:07:24;;;;;;;4.18;3.58;;;;;;;15.23;72.06;101921.38;5006451;28;20659;-57
2023/06/07 02:09:51;;;;;;;5.70;4.03;;;;;;;15.22;71.63;101916.97;5007043;28;21046;-57
2023/06/07 02:12:18;;;;;;;5.18;3.58;;;;;;;15.25;72.75;101912.69;5004487;28;20046;-57
2023/06/07 02:14:45;;;;;;;5.13;3.78;;;;;;;15.21;72.25;101912.59;5006122;28;20042;-56
2023/06/07 02:17:11;;;;;;;5.68;3.70;;;;;;;15.13;71.89;101915.03;5004564;28;20536;-56
2023/06/07 02:19:36;;;;;;;5.40;3.90;;;;;;;15.09;71.98;101916.72;5005251;28;20061;-56
2023/06/07 02:22:02;;;;;;;5.80;3.78;;;;;;;15.01;70.30;101917.38;5000915;28;20037;-56
2023/06/07 02:24:27;;;;;;;4.55;3.78;;;;;;;14.93;71.94;101911.94;5006116;28;20616;-56
2023/06/07 02:26:56;;;;;;;5.43;4.05;;;;;;;14.82;73.20;101919.59;5005691;28;20042;-56
2023/06/07 02:29:22;;;;;;;5.38;4.03;;;;;;;14.84;71.92;101915.25;5005414;28;20053;-56
2023/06/07 02:31:48;;;;;;;6.43;4.28;;;;;;;14.71;73.46;101915.81;5003302;28;20046;-56
2023/06/07 02:34:14;;;;;;;5.32;4.07;;;;;;;14.70;74.04;101920.19;5005095;28;20374;-56
2023/06/07 02:36:40;;;;;;;5.35;4.00;;;;;;;14.57;73.63;101918.06;5002791;28;20045;-56
2023/06/07 02:39:07;;;;;;;5.85;4.20;;;;;;;14.59;72.74;101919.00;5004770;28;20080;-56
2023/06/07 02:41:33;;;;;;;5.40;4.07;;;;;;;14.57;73.48;101915.44;5002484;28;20026;-57
2023/06/07 02:43:58;;;;;;;5.13;4.22;;;;;;;14.56;74.28;101917.19;5005206;28;20029;-57
2023/06/07 02:46:23;;;;;;;5.07;3.83;;;;;;;14.68;74.29;101918.38;5004517;28;20044;-56
2023/06/07 02:48:49;;;;;;;5.43;4.60;;;;;;;14.71;73.50;101921.06;5002031;28;20040;-57
2023/06/07 02:51:15;;;;;;;5.10;4.07;;;;;;;14.70;73.90;101916.66;5003649;28;20035;-56
2023/06/07 02:53:40;;;;;;;5.45;4.28;;;;;;;14.68;73.58;101914.00;5003945;28;20038;-56
2023/06/07 02:56:05;;;;;;;5.78;3.75;;;;;;;14.63;72.99;101913.03;5002244;28;20040;-57
2023/06/07 02:58:31;;;;;;;5.90;4.15;;;;;;;14.51;74.41;101913.59;5002633;28;20041;-56
2023/06/07 03:00:56;;;;;;;6.53;4.57;;;;;;;14.49;74.68;101912.63;5003861;28;20045;-56
2023/06/07 03:03:23;;;;;;;5.38;4.50;;;;;;;14.50;73.87;101921.41;5003770;28;20095;-56
2023/06/07 03:05:49;;;;;;;5.47;4.20;;;;;;;14.55;74.38;101923.28;5003584;28;20022;-56
2023/06/07 03:08:16;;;;;;;6.22;4.30;;;;;;;14.51;74.73;101921.44;5003337;28;20026;-56
2023/06/07 03:10:41;;;;;;;5.10;4.18;;;;;;;14.46;75.14;101923.06;5002310;28;20121;-57
2023/06/07 03:13:06;;;;;;;5.82;4.00;;;;;;;14.46;74.84;101920.44;5004968;28;20557;-56
2023/06/07 03:15:32;;;;;;;5.53;4.03;;;;;;;14.45;73.80;101918.66;5004196;28;20061;-56
2023/06/07 03:17:58;;;;;;;5.13;3.90;;;;;;;14.41;74.10;101920.31;5004127;28;20034;-56
2023/06/07 03:20:23;;;;;;;6.53;4.13;;;;;;;14.47;74.75;101919.59;5001904;28;20123;-56
2023/06/07 03:22:49;;;;;;;5.40;3.88;;;;;;;14.47;74.33;101916.06;5001906;28;20045;-56
2023/06/07 03:25:15;;;;;;;6.18;4.25;;;;;;;14.46;75.17;101924.81;5003770;28;20030;-56
2023/06/07 03:27:40;;;;;;;6.05;3.85;;;;;;;14.47;75.32;101929.19;5004320;28;20048;-57
2023/06/07 03:30:06;;;;;;;6.40;3.97;;;;;;;14.44;74.36;101930.88;5004178;28;20084;-56
2023/06/07 03:32:32;;;;;;;5.60;4.07;;;;;;;14.41;74.81;101932.53;5002399;28;20033;-56
2023/06/07 03:34:57;;;;;;;6.55;4.28;;;;;;;14.43;74.37;101926.47;4985309;28;20540;-56
2023/06/07 03:37:23;;;;;;;5.00;3.97;;;;;;;14.40;74.67;101925.53;5002625;28;20497;-56
2023/06/07 03:39:48;;;;;;;5.22;3.63;;;;;;;14.39;73.43;101924.63;5000248;28;20042;-57
2023/06/07 03:42:13;;;;;;;5.70;3.90;;;;;;;14.38;75.11;101929.84;5002955;28;20061;-56
2023/06/07 03:44:38;;;;;;;5.28;4.00;;;;;;;14.36;74.75;101929.78;5002737;28;20096;-57
2023/06/07 03:47:04;;;;;;;6.00;3.75;;;;;;;14.33;74.90;101929.72;5005162;28;20034;-56
2023/06/07 03:49:29;;;;;;;4.88;3.70;;;;;;;14.30;74.98;101928.78;5003929;28;20676;-56
2023/06/07 03:51:54;;;;;;;6.68;3.75;;;;;;;14.30;75.59;101931.41;5003817;28;20041;-57
2023/06/07 03:54:20;;;;;;;5.25;3.58;;;;;;;14.29;75.98;101933.09;5004145;28;20042;-56
2023/06/07 03:56:45;;;;;;;4.70;3.80;;;;;;;14.25;75.39;101933.88;5005054;28;20049;-56
2023/06/07 03:59:12;;;;;;;6.80;4.07;;;;;;;14.24;75.33;101934.75;4986907;28;20181;-56
2023/06/07 04:01:37;;;;;;;5.90;4.03;;;;;;;14.21;76.34;101939.91;5003408;28;20531;-56
2023/06/07 04:04:03;;;;;;;4.70;3.63;;;;;;;14.21;76.02;101934.66;5003811;28;20033;-57
2023/06/07 04:06:28;;;;;;;4.60;3.63;;;;;;;14.16;74.97;101933.66;5003130;28;20026;-56
2023/06/07 04:08:56;;;;;;;5.78;3.90;;;;;;;14.20;75.30;101933.75;5004171;28;20117;-56
2023/06/07 04:11:22;;;;;;;4.63;3.97;;;;;;;14.14;75.06;101933.59;5001550;28;20033;-56
2023/06/07 04:13:47;;;;;;;5.63;3.50;;;;;;;14.06;74.31;101935.13;5003351;28;20521;-56
2023/06/07 04:16:13;;;;;;;5.13;4.07;;;;;;;14.07;76.20;101937.78;5002208;28;20034;-56
2023/06/07 04:18:38;;;;;;;5.97;3.83;;;;;;;14.09;75.55;101938.72;5003499;28;20034;-56
2023/06/07 04:21:04;;;;;;;5.25;3.83;;;;;;;14.12;76.17;101926.53;5000437;28;20044;-57
2023/06/07 04:23:29;;;;;;;6.90;4.07;;;;;;;14.11;74.31;101930.91;5003203;28;20107;-56
2023/06/07 04:25:54;;;;;;;5.65;3.85;;;;;;;14.09;75.92;101928.25;5001881;28;20062;-56
2023/06/07 04:28:23;;;;;;;6.32;4.10;;;;;;;14.04;76.24;101937.72;5001493;28;20033;-56
2023/06/07 04:30:51;;;;;;;6.13;4.00;;;;;;;13.99;76.08;101933.19;5002631;28;20037;-56
2023/06/07 04:33:19;;;;;;;4.85;3.85;;;;;;;14.00;76.59;101930.59;5003511;28;20103;-56
2023/06/07 04:35:44;;;;;;;5.88;3.95;;;;;;;13.98;77.13;101932.31;5001372;28;20048;-56
2023/06/07 04:38:11;;;;;;;4.63;3.65;;;;;;;13.98;77.74;101931.44;5002488;28;20042;-57
2023/06/07 04:40:41;;;;;;;4.78;3.97;;;;;;;14.01;77.59;101940.25;5000379;28;20042;-56
2023/06/07 04:43:06;;;;;;;;;;;;;;;14.04;75.27;101932.47;5001373;28;20048;-56
2023/06/07 04:45:40;;;;;;;5.53;4.03;;;;;;;14.04;77.12;101939.44;5002634;28;19921;-56
2023/06/07 04:48:07;;;;;;;5.28;3.78;;;;;;;14.00;76.07;101951.56;5001985;28;20182;-57
2023/06/07 04:50:33;;;;;;;5.18;3.53;;;;;;;13.95;77.53;101952.28;5002323;28;20077;-56
2023/06/07 04:53:03;;;;;;;6.70;3.75;;;;;;;13.99;77.04;101946.28;4999212;28;20034;-57
2023/06/07 04:55:34;;;;;;;6.10;3.83;;;;;;;14.04;77.05;101942.94;5000912;28;20054;-56
2023/06/07 04:58:00;;;;;;;4.97;3.90;;;;;;;14.07;76.64;101936.91;5002221;28;20140;-59
2023/06/07 05:00:26;;;;;;;6.32;3.92;;;;;;;14.04;76.63;101940.31;5003278;28;20045;-60
2023/06/07 05:02:52;;;;;;;6.13;3.80;;;;;;;14.08;75.48;101939.56;5002348;28;20359;-60
2023/06/07 05:05:19;;;;;;;5.32;3.85;;;;;;;14.09;76.50;101937.81;5000277;28;20049;-60
2023/06/07 05:07:44;;;;;;;6.20;3.65;;;;;;;14.00;75.92;101943.72;5002510;28;20034;-60
2023/06/07 05:10:10;;;;;;;5.85;4.20;;;;;;;14.05;77.34;101942.13;4999958;28;20040;-59
2023/06/07 05:12:35;;;;;;;5.18;3.92;;;;;;;14.06;76.47;101943.00;4999493;28;20401;-60
2023/06/07 05:15:01;;;;;;;5.30;3.70;;;;;;;14.07;76.80;101947.41;4979181;28;20042;-60
2023/06/07 05:17:28;;;;;;;5.03;3.70;;;;;;;14.08;74.75;101943.94;5001148;28;20053;-59
2023/06/07 05:19:54;;;;;;;5.93;3.88;;;;;;;14.08;76.29;101950.06;5002779;28;20033;-60
2023/06/07 05:22:20;;;;;;;5.53;4.00;;;;;;;14.03;77.21;101948.16;5002379;28;20038;-60
2023/06/07 05:24:46;;;;;;;5.93;3.80;;;;;;;14.06;77.72;101946.53;5002171;28;20041;-60
2023/06/07 05:27:11;;;;;;;6.22;4.00;;;;;;;14.14;77.55;101953.69;5001348;28;20045;-56
2023/06/07 05:29:36;;;;;;;7.88;3.90;;;;;;;14.18;77.11;101950.28;4999840;28;20099;-57
2023/06/07 05:32:02;;;;;;;5.95;4.22;;;;;;;14.15;76.49;101960.69;5003620;28;20389;-56
2023/06/07 05:34:27;;;;;;;5.10;3.85;;;;;;;14.18;75.74;101955.53;5005158;28;20038;-57
2023/06/07 05:36:52;;;;;;;5.03;3.88;;;;;;;14.23;76.92;101951.31;5004161;28;20050;-56
2023/06/07 05:39:17;;;;;;;5.80;4.07;;;;;;;14.25;76.33;101957.47;5006120;28;20069;-56
2023/06/07 05:41:43;;;;;;;5.88;4.00;;;;;;;14.21;77.11;101955.63;5005790;28;20508;-56
2023/06/07 05:44:08;;;;;;;5.40;4.07;;;;;;;14.24;75.91;101955.72;5005647;28;20164;-56
2023/06/07 05:46:33;;;;;;;5.95;3.70;;;;;;;14.22;77.26;101952.16;4983898;28;20515;-56
2023/06/07 05:48:58;;;;;;;5.55;4.10;;;;;;;14.23;76.50;101959.19;5006584;28;20068;-56
2023/06/07 05:51:24;;;;;;;6.68;4.00;;;;;;;14.26;76.09;101960.16;5006497;28;20026;-57
2023/06/07 05:53:49;;;;;;;5.80;4.20;;;;;;;14.37;76.34;101960.41;4989551;28;20049;-56
2023/06/07 05:56:16;;;;;;;5.68;3.97;;;;;;;14.31;77.36;101956.75;5007482;28;20026;-57
2023/06/07 05:58:47;;;;;;;5.68;3.70;;;;;;;14.39;77.30;101966.56;5007306;28;20025;-56
2023/06/07 06:01:13;;;;;;;5.47;3.80;;;;;;;14.46;77.19;101964.13;5004957;28;20042;-56
2023/06/07 06:03:38;;;;;;;4.65;3.60;;;;;;;14.47;76.83;101961.56;5006721;28;20022;-56
2023/06/07 06:06:15;;;;;;;5.60;4.10;;;;;;;14.51;75.69;101963.41;5006429;28;20038;-57
2023/06/07 06:08:40;;;;;;;6.60;4.00;;;;;;;14.55;76.44;101977.47;5007165;28;20394;-57
2023/06/07 06:11:05;;;;;;;6.15;4.00;;;;;;;14.58;76.85;101982.78;5005317;28;20511;-57
2023/06/07 06:13:32;;;;;;;4.45;3.60;;;;;;;14.62;76.36;101974.19;5006658;28;20484;-56
2023/06/07 06:15:57;;;;;;;5.78;4.35;;;;;;;14.66;76.30;101980.41;5005959;28;20042;-57
2023/06/07 06:18:23;;;;;;;6.32;4.18;;;;;;;14.69;76.22;101975.25;5004578;28;20485;-56
2023/06/07 06:20:48;;;;;;;5.38;3.97;;;;;;;14.68;75.67;101974.34;5005440;28;20049;-57
2023/06/07 06:23:13;;;;;;;5.05;3.67;;;;;;;14.69;75.84;101972.63;5005702;28;20548;-56
2023/06/07 06:25:39;;;;;;;6.47;4.32;;;;;;;14.69;75.31;101973.50;5004594;28;20711;-57
2023/06/07 06:28:04;;;;;;;7.13;4.47;;;;;;;14.71;75.69;101981.41;5004045;28;20129;-57
2023/06/07 06:30:29;;;;;;;6.13;4.10;;;;;;;14.72;74.97;101978.81;5005137;28;20045;-56
2023/06/07 06:32:55;;;;;;;6.47;3.95;;;;;;;14.73;76.37;101977.06;5004201;28;20396;-56
2023/06/07 06:35:20;;;;;;;6.60;4.40;;;;;;;14.72;76.54;101976.19;5006003;28;20046;-56
2023/06/07 06:37:45;;;;;;;6.78;4.78;;;;;;;14.68;75.35;101982.22;5002931;28;20050;-56
2023/06/07 06:40:12;;;;;;;7.65;4.53;;;;;;;14.71;75.88;101986.66;5004003;28;20040;-56
2023/06/07 06:42:37;;;;;;;5.82;4.10;;;;;;;14.72;75.74;101989.31;5002352;28;20037;-57
2023/06/07 06:45:03;;;;;;;5.95;4.07;;;;;;;14.76;75.64;101992.91;5006153;28;20048;-56
2023/06/07 06:47:28;;;;;;;5.85;3.88;;;;;;;14.75;75.47;101992.00;5003871;28;20034;-56
2023/06/07 06:49:54;;;;;;;5.55;4.10;;;;;;;14.76;76.89;102001.66;5000323;28;20042;-56
2023/06/07 06:52:19;;;;;;;6.32;4.18;;;;;;;14.81;75.84;101995.66;4999395;28;20501;-57
2023/06/07 06:54:45;;;;;;;6.00;3.90;;;;;;;14.92;76.05;101999.44;5002757;28;20100;-57
2023/06/07 06:57:10;;;;;;;7.20;4.10;;;;;;;14.98;74.63;101993.44;4985615;28;20088;-57
2023/06/07 06:59:35;;;;;;;6.90;3.88;;;;;;;15.01;74.37;101994.38;5000522;28;20022;-56
2023/06/07 07:02:01;;;;;;;5.55;4.15;;;;;;;15.03;74.88;101991.78;5002093;28;20052;-57
2023/06/07 07:04:26;;;;;;;5.93;4.13;;;;;;;15.13;75.60;101993.78;5001942;28;20038;-56
2023/06/07 07:06:51;;;;;;;5.55;3.97;;;;;;;15.19;75.32;102000.91;5004003;28;20033;-56
2023/06/07 07:09:17;;;;;;;5.78;3.63;;;;;;;15.24;74.12;102007.16;5004792;28;20030;-57
2023/06/07 07:11:42;;;;;;;6.78;4.40;;;;;;;15.29;74.85;102014.31;5002796;28;20048;-56
2023/06/07 07:14:07;;;;;;;5.50;3.95;;;;;;;15.37;74.50;102008.34;5001918;28;20101;-57
2023/06/07 07:16:33;;;;;;;5.90;3.80;;;;;;;15.48;74.43;102007.72;5005451;28;20042;-57
2023/06/07 07:18:58;;;;;;;8.18;4.43;;;;;;;15.52;72.56;102011.28;5004485;28;20457;-56
2023/06/07 07:21:24;;;;;;;7.30;4.20;;;;;;;15.55;72.36;102013.09;5002534;28;20493;-56
2023/06/07 07:23:50;;;;;;;5.13;3.58;;;;;;;15.60;74.00;102009.72;5005609;28;20044;-57
2023/06/07 07:26:15;;;;;;;7.30;4.20;;;;;;;15.72;73.56;102005.59;5002230;28;20030;-57
2023/06/07 07:28:40;;;;;;;5.55;3.90;;;;;;;15.87;71.66;102010.31;5002470;28;20404;-56
2023/06/07 07:31:06;;;;;;;6.45;4.25;;;;;;;15.88;72.08;102019.97;5002801;28;20069;-56
2023/06/07 07:33:32;;;;;;;5.80;3.80;;;;;;;15.96;72.67;102018.34;5002667;28;20095;-56
2023/06/07 07:36:00;;;;;;;6.00;3.95;;;;;;;16.01;72.52;102019.34;5003116;28;20040;-57
2023/06/07 07:38:25;;;;;;;6.17;3.70;;;;;;;16.10;73.01;102009.00;5003842;28;20038;-56
2023/06/07 07:40:51;;;;;;;6.65;4.20;;;;;;;16.15;71.68;102011.75;4981196;28;20801;-57
2023/06/07 07:43:16;;;;;;;6.28;3.90;;;;;;;16.22;72.11;102018.00;5004177;28;20048;-57
2023/06/07 07:45:41;;;;;;;7.18;4.03;;;;;;;16.30;72.04;102014.66;5004433;28;20396;-57
2023/06/07 07:48:06;;;;;;;6.65;4.07;;;;;;;16.28;71.42;102008.50;5003036;28;20504;-57
2023/06/07 07:50:32;;;;;;;5.28;3.95;;;;;;;16.32;71.87;102014.69;5003637;28;20157;-57
2023/06/07 07:52:57;;;;;;;6.68;4.05;;;;;;;16.39;72.23;102016.56;5001897;28;20037;-57
2023/06/07 07:55:23;;;;;;;7.28;4.07;;;;;;;16.44;71.53;102025.44;5000797;28;20040;-57
2023/06/07 07:57:50;;;;;;;4.55;3.60;;;;;;;16.54;71.46;102028.22;4998897;28;20085;-58
2023/06/07 08:00:16;;;;;;;7.38;4.20;;;;;;;16.58;72.03;102020.41;5000967;28;20033;-57
2023/06/07 08:02:41;;;;;;;6.15;4.07;;;;;;;16.65;71.69;102030.19;4998949;28;20444;-57
2023/06/07 08:05:07;;;;;;;6.78;4.03;;;;;;;16.82;70.69;102022.59;5000952;28;20042;-57
2023/06/07 08:07:32;;;;;;;6.72;3.83;;;;;;;16.81;68.93;102031.34;5000132;28;20033;-57
2023/06/07 08:09:58;;;;;;;6.07;4.00;;;;;;;16.87;69.95;102020.03;4999443;28;20042;-57
2023/06/07 08:12:23;;;;;;;5.60;3.70;;;;;;;17.04;70.57;102012.44;5003508;28;20053;-57
2023/06/07 08:14:48;;;;;;;5.85;3.47;;;;;;;17.28;68.91;102016.28;4998992;28;20409;-56
2023/06/07 08:17:14;;;;;;;5.30;3.78;;;;;;;17.48;68.89;102014.84;4980152;28;20042;-57
2023/06/07 08:19:39;;;;;;;5.20;3.92;;;;;;;17.64;69.10;102010.66;5001150;28;20037;-57
2023/06/07 08:22:05;;;;;;;4.88;3.50;;;;;;;17.79;68.82;102017.88;4999317;28;20569;-58
2023/06/07 08:24:31;;;;;;;5.38;3.97;;;;;;;17.69;63.63;102010.72;5003941;28;20034;-56
2023/06/07 08:26:56;;;;;;;7.03;3.80;;;;;;;17.83;69.19;102017.06;5003185;28;20619;-57
2023/06/07 08:29:21;;;;;;;7.28;3.95;;;;;;;18.08;67.29;102012.97;5001807;28;20409;-57
2023/06/07 08:31:47;;;;;;;5.68;4.10;;;;;;;18.28;66.10;102019.34;5002165;28;20105;-57
2023/06/07 08:34:12;;;;;;;6.13;4.35;;;;;;;18.27;61.92;102004.41;5003814;28;20042;-57
2023/06/07 08:36:39;;;;;;;6.65;3.95;;;;;;;18.35;65.36;102007.97;5003140;28;20129;-58
2023/06/07 08:39:05;;;;;;;5.75;3.70;;;;;;;18.51;64.48;102012.56;4999443;28;20101;-57
2023/06/07 08:41:30;;;;;;;5.53;3.83;;;;;;;18.69;65.58;102010.94;4977852;28;20077;-57
2023/06/07 08:43:55;;;;;;;5.80;3.83;;;;;;;18.86;64.25;102005.81;5003111;28;20107;-57
2023/06/07 08:46:23;;;;;;;7.25;3.83;;;;;;;19.09;67.23;102003.38;5002859;28;20056;-57
2023/06/07 08:48:49;;;;;;;6.15;3.90;;;;;;;19.25;64.07;101997.31;5001263;28;20633;-58
2023/06/07 08:51:17;;;;;;;5.97;4.03;;;;;;;19.39;64.36;102001.78;4999729;28;20044;-58
2023/06/07 08:53:55;;;;;;;7.23;4.07;;;;;;;19.52;63.51;101997.44;5002639;28;20041;-58
2023/06/07 08:56:22;;;;;;;6.00;4.00;;;;;;;19.72;63.25;102008.13;5002901;28;20164;-57
2023/06/07 08:58:49;;;;;;;5.50;4.18;;;;;;;19.73;61.23;102004.59;4999557;28;20044;-57
2023/06/07 09:01:15;;;;;;;7.97;4.15;;;;;;;19.52;60.55;102011.53;5001124;28;20584;-58
2023/06/07 09:03:40;;;;;;;5.70;3.83;;;;;;;19.50;61.15;102009.78;5002413;28;20046;-57
2023/06/07 09:06:06;;;;;;;5.05;3.80;;;;;;;19.48;58.61;102004.50;5001410;28;20413;-58
2023/06/07 09:08:31;;;;;;;5.75;3.80;;;;;;;19.61;61.26;102005.41;5002331;28;20129;-57
2023/06/07 09:10:56;;;;;;;4.95;3.80;;;;;;;19.76;61.02;102009.91;4982971;28;20045;-58
2023/06/07 09:13:22;;;;;;;5.05;3.63;;;;;;;19.88;59.11;102009.97;5000853;28;20240;-57
2023/06/07 09:15:49;;;;;;;5.40;3.83;;;;;;;19.85;58.38;102015.25;4979430;28;20057;-57
2023/06/07 09:18:14;;;;;;;6.32;3.70;;;;;;;19.92;57.76;102017.03;5000932;28;20034;-57
2023/06/07 09:20:40;;;;;;;6.25;3.83;;;;;;;19.95;59.96;102011.75;4996421;28;20054;-57
2023/06/07 09:23:11;;;;;;;8.50;3.83;;;;;;;19.95;57.94;102011.75;4999589;28;20045;-58
2023/06/07 09:25:39;;;;;;;5.32;3.50;;;;;;;20.06;61.78;102002.97;5001752;28;20032;-57
2023/06/07 09:28:13;;;;;;;6.90;4.00;;;;;;;20.23;59.76;102011.81;5002323;28;20141;-58
2023/06/07 09:30:55;;;;;;;6.70;4.30;;;;;;;20.41;59.69;102012.78;5001033;28;20096;-58
2023/06/07 09:33:36;;;;;;;8.55;4.40;;;;;;;20.38;60.80;102015.38;4999651;28;20511;-58
2023/06/07 09:36:11;;;;;;;4.97;3.30;;;;;;;20.47;62.00;102012.75;5002429;28;20117;-58
2023/06/07 09:38:36;;;;;;;6.15;4.22;;;;;;;20.47;58.47;102004.81;5000263;28;20461;-58
2023/06/07 09:41:03;;;;;;;5.47;3.95;;;;;;;20.49;59.68;102006.59;4999467;28;20528;-58
2023/06/07 09:43:51;;;;;;;6.22;4.03;;;;;;;20.61;59.21;102011.00;5036168;23;20132;-96
2023/06/07 09:46:19;;;;;;;6.13;4.10;;;;;;;20.47;58.05;102008.34;4975228;28;20030;-96
2023/06/07 09:49:01;;;;;;;8.27;4.35;;;;;;;20.60;58.77;102001.28;4981052;28;20075;-96
2023/06/07 09:51:50;;;;;;;;;;;;;;;;;;;;;
2023/06/07 09:54:17;;;;;;;6.13;3.78;;;;;;;20.40;58.39;102000.41;4998077;28;20129;-96
2023/06/07 09:56:43;;;;;;;4.65;3.55;;;;;;;20.40;59.14;102003.03;4985686;28;20043;-96
2023/06/07 09:59:16;;;;;;;6.10;4.18;;;;;;;20.30;57.14;102007.44;4979697;28;20031;-96
2023/06/07 10:01:52;;;;;;;6.45;4.13;;;;;;;20.24;58.03;102013.59;4979160;28;20089;-96
2023/06/07 10:04:44;;;;;;;7.95;4.30;;;;;;;20.26;59.80;102006.56;4986151;28;20116;-96
2023/06/07 10:07:12;;;;;;;5.95;4.05;;;;;;;19.97;60.06;102002.06;4975704;28;20065;-96
2023/06/07 10:10:06;;;;;;;8.07;3.97;;;;;;;20.07;61.57;101995.03;5008538;28;20022;-96
2023/06/07 10:12:36;;;;;;;5.97;4.30;;;;;;;20.19;60.12;101986.25;4992510;28;20038;-96
2023/06/07 10:15:11;;;;;;;5.28;4.00;;;;;;;20.28;59.60;101988.91;4987309;28;20103;-96
2023/06/07 10:18:22;;;;;;;5.45;3.97;;;;;;;20.44;59.71;101989.81;4989182;28;20034;-96
2023/06/07 10:21:25;;;;;;;5.78;4.05;;;;;;;20.37;60.24;101992.47;5014348;28;20526;-96
2023/06/07 10:24:52;;;;;;;;;;;;;;;;;;;;;
2023/06/07 10:27:25;;;;;;;7.78;4.45;;;;;;;20.72;60.47;101994.28;5012319;28;20479;-96
2023/06/07 10:30:14;;;;;;;5.75;4.32;;;;;;;20.72;59.42;102000.44;4988003;28;20031;-96
2023/06/07 10:33:03;;;;;;;5.22;4.07;;;;;;;20.67;57.68;101987.19;4992797;28;20042;-96
2023/06/07 10:35:46;;;;;;;6.10;4.25;;;;;;;20.55;58.86;101999.53;5004238;28;20083;-96
2023/06/07 10:38:24;;;;;;;5.03;4.10;;;;;;;20.47;58.31;102003.03;4990542;28;20105;-96
2023/06/07 10:41:01;;;;;;;5.13;3.83;;;;;;;20.40;59.64;102003.03;5005813;28;20026;-96
2023/06/07 10:43:37;;;;;;;6.20;4.10;;;;;;;20.44;59.71;101999.53;4997313;28;20121;-96
2023/06/07 10:46:24;;;;;;;6.85;4.00;;;;;;;20.55;61.23;101992.47;4967378;28;20369;-96
2023/06/07 10:48:58;;;;;;;6.50;4.38;;;;;;;20.63;62.69;101993.34;4951632;28;20043;-96
2023/06/07 10:51:44;;;;;;;6.25;4.75;;;;;;;20.51;61.42;101996.00;4967000;28;20070;-96
2023/06/07 10:54:53;;;;;;;6.88;4.22;;;;;;;20.36;58.12;101991.56;4972097;28;20038;-96
2023/06/07 10:57:48;;;;;;;5.85;4.22;;;;;;;20.25;59.85;101988.03;4963312;28;20509;-96
2023/06/07 11:00:31;;;;;;;6.78;4.38;;;;;;;20.08;58.07;101983.56;4954960;28;20035;-96
2023/06/07 11:03:10;;;;;;;7.28;4.45;;;;;;;19.98;59.63;101984.44;4969653;28;20102;-96
2023/06/07 11:06:01;;;;;;;6.32;4.30;;;;;;;19.92;61.54;101987.06;4972467;28;20042;-96
2023/06/07 11:08:36;;;;;;;6.25;4.40;;;;;;;19.78;61.46;101984.34;4955131;28;20091;-96
2023/06/07 11:11:27;;;;;;;6.40;4.38;;;;;;;19.68;60.34;101979.88;4948346;28;20178;-96
2023/06/07 11:13:58;;;;;;;6.35;4.47;;;;;;;19.59;60.15;101986.91;4951126;28;20035;-96
2023/06/07 11:16:29;;;;;;;7.10;4.32;;;;;;;19.56;61.08;101980.72;4964793;28;20039;-96
2023/06/07 11:19:27;;;;;;;6.15;4.68;;;;;;;19.40;59.22;101971.84;4973407;28;20035;-96
2023/06/07 11:22:25;;;;;;;7.03;5.03;;;;;;;19.36;60.81;101970.91;4975722;28;20068;-96
2023/06/07 11:25:11;;;;;;;7.38;4.50;;;;;;;19.51;62.02;101975.41;4946736;28;20042;-96
2023/06/07 11:27:36;;;;;;;8.25;4.80;;;;;;;19.66;63.95;101966.66;4953360;28;20038;-96
2023/06/07 11:30:06;;;;;;;20.88;18.65;;;;;;;19.75;63.76;101971.09;4955123;28;20035;-95
2023/06/07 11:32:42;;;;;;;66.35;59.40;;;;;;;19.82;62.57;101966.75;4957626;28;20039;-96
2023/06/07 11:35:13;;;;;;;13.95;11.32;;;;;;;19.87;65.30;101968.53;4953792;28;20039;-96